This is the latest recevied weather packets stored in our database for station/object SM6VFJ-1. If no packets are shown the sender has not sent any weather packets the latest 10 day(s).
| Time | Temp. | Humidity | Pressure | Rain* | Wind** | Luminosity | Snow |
|---|---|---|---|---|---|---|---|
| 1777564860 | 21.67° C | 36% | 1026 hPa | 0 mm | - | 294 W/m² | - |
| 1777563964 | 21.11° C | 38% | 1026.1 hPa | 0 mm | - | 327 W/m² | - |
| 1777559447 | 21.11° C | 31% | 1026.5 hPa | 0 mm | - | 499 W/m² | - |
| 1777554935 | 20° C | 38% | 1027.2 hPa | 0 mm | - | 635 W/m² | - |
| 1777553132 | 20° C | 46% | 1027.5 hPa | 0 mm | - | 666 W/m² | - |
| 1777548621 | 18.33° C | 43% | 1027.8 hPa | 0 mm | - | 729 W/m² | - |
| 1777547717 | 17.78° C | 47% | 1027.9 hPa | 0 mm | - | 729 W/m² | - |
| 1777546814 | 17.22° C | 49% | 1028 hPa | 0 mm | - | 740 W/m² | - |
| 1777538745 | 12.78° C | 70% | 1028.7 hPa | 0 mm | - | 606 W/m² | - |
| 1777537841 | 11.67° C | 72% | 1028.9 hPa | 0 mm | - | 536 W/m² | - |
| 1777535132 | 10.56° C | 75% | 1029.2 hPa | 0 mm | - | 559 W/m² | - |
| 1777534229 | 10° C | 76% | 1029.2 hPa | 0 mm | - | 269 W/m² | - |
| 1777533327 | 9.44° C | 77% | 1029.3 hPa | 0 mm | - | 316 W/m² | - |
| 1777529721 | 7.22° C | 82% | 1029.2 hPa | 0 mm | - | 315 W/m² | - |
| 1777528824 | 6.67° C | 82% | 1029.3 hPa | 0 mm | - | 206 W/m² | - |
| 1777525222 | 5.56° C | 81% | 1028.8 hPa | 0 mm | - | 62 W/m² | - |
| 1777523414 | 5.56° C | 80% | 1028.7 hPa | 0 mm | - | 37 W/m² | - |
| 1777521607 | 5.56° C | 79% | 1028.7 hPa | 0 mm | - | 26 W/m² | - |
| 1777520701 | 5.56° C | 79% | 1028.6 hPa | 0 mm | - | 14 W/m² | - |
| 1777517153 | 6.11° C | 77% | 1028.5 hPa | 0 mm | - | 0 W/m² | - |
| 1777512644 | 7.22° C | 73% | 1028.3 hPa | 0 mm | - | 0 W/m² | - |
| 1777509938 | 7.78° C | 68% | 1028.5 hPa | 0 mm | - | 0 W/m² | - |
| 1777509036 | 7.78° C | 68% | 1028.6 hPa | 0 mm | - | 0 W/m² | - |
| 1777508136 | 7.78° C | 67% | 1028.6 hPa | 0 mm | - | 0 W/m² | - |
| 1777504527 | 8.33° C | 67% | 1029 hPa | 0 mm | - | 0 W/m² | - |
* Rain latest hour (hover to see other rain measurements)
** Current wind speed in m/s (hover to see current wind gust speed)